createdAt,value
2023-03-12T00:02:19.213Z,2.00
2023-03-12T00:04:45.864Z,2.17
2023-03-12T00:07:12.533Z,3.75
2023-03-12T00:09:39.601Z,1.90
2023-03-12T00:12:07.389Z,5.22
2023-03-12T00:14:34.361Z,5.03
2023-03-12T00:17:01.073Z,3.60
2023-03-12T00:19:28.133Z,1.08
2023-03-12T00:21:54.943Z,3.13
2023-03-12T00:24:21.587Z,2.63
2023-03-12T00:26:48.499Z,2.70
2023-03-12T00:29:15.240Z,5.22
2023-03-12T00:31:41.950Z,2.65
2023-03-12T00:34:10.009Z,3.95
2023-03-12T00:36:36.705Z,1.50
2023-03-12T00:39:04.183Z,7.68
2023-03-12T00:41:30.939Z,8.13
2023-03-12T00:43:57.930Z,3.35
2023-03-12T00:46:24.826Z,3.08
2023-03-12T00:48:51.825Z,2.65
2023-03-12T00:51:18.821Z,3.40
2023-03-12T00:53:45.855Z,4.72
2023-03-12T00:56:12.503Z,7.68
2023-03-12T00:58:39.176Z,5.43
2023-03-12T01:01:05.965Z,4.88
2023-03-12T01:03:32.925Z,3.15
2023-03-12T01:05:59.885Z,4.43
2023-03-12T01:08:26.956Z,5.20
2023-03-12T01:10:53.780Z,3.28
2023-03-12T01:13:21.122Z,6.05
2023-03-12T01:15:47.835Z,5.05
2023-03-12T01:18:14.826Z,2.70
2023-03-12T01:20:41.792Z,4.55
2023-03-12T01:23:08.855Z,30.25
2023-03-12T01:25:36.453Z,6.05
2023-03-12T01:28:03.209Z,4.70
2023-03-12T01:30:30.645Z,3.83
2023-03-12T01:32:57.334Z,5.60
2023-03-12T01:35:24.514Z,4.00
2023-03-12T01:37:51.173Z,4.88
2023-03-12T01:40:20.301Z,5.30
2023-03-12T01:42:57.647Z,9.05
2023-03-12T01:45:58.505Z,3.85
2023-03-12T01:48:26.033Z,3.92
2023-03-12T01:50:52.648Z,6.05
2023-03-12T01:53:19.501Z,6.45
2023-03-12T01:55:46.497Z,6.20
2023-03-12T01:58:13.536Z,4.50
2023-03-12T02:00:40.444Z,6.75
2023-03-12T02:03:10.339Z,3.67
2023-03-12T02:05:51.308Z,10.82
2023-03-12T02:08:19.058Z,4.78
2023-03-12T02:10:46.492Z,6.18
2023-03-12T02:13:13.317Z,3.60
2023-03-12T02:15:40.335Z,4.28
2023-03-12T02:18:09.514Z,2.85
2023-03-12T02:21:02.521Z,6.38
2023-03-12T02:23:38.223Z,3.58
2023-03-12T02:26:06.435Z,9.35
2023-03-12T02:28:35.267Z,2.97
2023-03-12T02:31:03.916Z,4.07
2023-03-12T02:33:30.574Z,4.28
2023-03-12T02:35:57.220Z,3.63
2023-03-12T02:38:45.608Z,5.00
2023-03-12T02:41:14.873Z,3.42
2023-03-12T02:43:45.453Z,4.32
2023-03-12T02:46:12.954Z,5.03
2023-03-12T02:48:39.688Z,3.83
2023-03-12T02:51:07.014Z,9.45
2023-03-12T02:53:33.992Z,2.67
2023-03-12T02:56:00.827Z,5.80
2023-03-12T02:58:27.712Z,5.85
2023-03-12T03:00:54.649Z,6.22
2023-03-12T03:03:21.375Z,8.15
2023-03-12T03:05:47.997Z,16.23
2023-03-12T03:08:14.827Z,7.55
2023-03-12T03:10:41.492Z,5.25
2023-03-12T03:13:08.504Z,6.60
2023-03-12T03:15:35.282Z,5.25
2023-03-12T03:18:03.945Z,2.55
2023-03-12T03:20:32.200Z,5.75
2023-03-12T03:22:58.918Z,4.38
2023-03-12T03:25:26.039Z,6.72
2023-03-12T03:27:52.913Z,6.05
2023-03-12T03:30:21.335Z,8.75
2023-03-12T03:32:50.020Z,4.90
2023-03-12T03:35:17.446Z,4.45
2023-03-12T03:37:50.272Z,5.50
2023-03-12T03:40:17.416Z,8.32
2023-03-12T03:42:44.120Z,7.60
2023-03-12T03:45:10.930Z,8.48
2023-03-12T03:47:37.945Z,13.52
2023-03-12T03:50:06.075Z,6.93
2023-03-12T03:52:33.100Z,5.05
2023-03-12T03:54:59.816Z,10.20
2023-03-12T03:57:27.276Z,4.93
2023-03-12T03:59:54.375Z,6.53
2023-03-12T04:02:21.750Z,9.70
2023-03-12T04:04:48.379Z,8.73
2023-03-12T04:07:15.246Z,7.97
2023-03-12T04:09:42.122Z,7.68
2023-03-12T04:12:09.221Z,9.68
2023-03-12T04:14:38.805Z,4.55
2023-03-12T04:17:05.678Z,4.60
2023-03-12T04:19:32.265Z,9.60
2023-03-12T04:21:58.928Z,5.85
2023-03-12T04:24:25.743Z,7.47
2023-03-12T04:26:52.439Z,7.78
2023-03-12T04:29:20.044Z,7.53
2023-03-12T04:31:47.013Z,7.80
2023-03-12T04:34:14.653Z,15.07
2023-03-12T04:36:41.864Z,6.07
2023-03-12T04:39:08.724Z,5.10
2023-03-12T04:41:36.244Z,5.60
2023-03-12T04:44:03.659Z,9.80
2023-03-12T04:46:30.414Z,4.82
2023-03-12T04:48:58.153Z,9.00
2023-03-12T04:51:25.416Z,5.70
2023-03-12T04:53:52.094Z,7.28
2023-03-12T04:56:18.882Z,4.70
2023-03-12T04:58:45.815Z,9.45
2023-03-12T05:01:25.368Z,6.38
2023-03-12T05:03:52.767Z,4.10
2023-03-12T05:06:20.426Z,9.93
2023-03-12T05:08:48.204Z,7.03
2023-03-12T05:11:15.345Z,10.13
2023-03-12T05:13:43.058Z,3.60
2023-03-12T05:16:11.323Z,7.93
2023-03-12T05:18:38.548Z,6.97
2023-03-12T05:21:07.160Z,5.88
2023-03-12T05:23:34.650Z,3.60
2023-03-12T05:26:02.074Z,4.18
2023-03-12T05:28:29.251Z,6.15
2023-03-12T05:30:57.785Z,4.93
2023-03-12T05:33:25.297Z,7.38
2023-03-12T05:35:52.325Z,10.45
2023-03-12T05:38:19.439Z,7.85
2023-03-12T05:40:57.431Z,6.32
2023-03-12T05:43:24.298Z,7.15
2023-03-12T05:45:51.395Z,5.80
2023-03-12T05:48:18.240Z,7.53
2023-03-12T05:50:45.622Z,5.90
2023-03-12T05:53:12.323Z,8.18
2023-03-12T05:55:40.364Z,13.68
2023-03-12T05:58:07.984Z,6.30
2023-03-12T06:00:38.857Z,8.02
2023-03-12T06:03:06.120Z,6.60
2023-03-12T06:05:35.304Z,4.45
2023-03-12T06:08:03.410Z,4.22
2023-03-12T06:10:30.071Z,6.97
2023-03-12T06:12:58.020Z,5.55
2023-03-12T06:15:24.624Z,8.15
2023-03-12T06:17:51.410Z,7.00
2023-03-12T06:20:18.149Z,8.45
2023-03-12T06:22:44.762Z,8.20
2023-03-12T06:25:11.619Z,8.27
2023-03-12T06:27:38.275Z,5.57
2023-03-12T06:30:05.489Z,5.90
2023-03-12T06:32:32.315Z,7.95
2023-03-12T06:35:00.682Z,6.00
2023-03-12T06:37:27.880Z,11.15
2023-03-12T06:39:54.878Z,8.30
2023-03-12T06:42:22.766Z,4.53
2023-03-12T06:44:50.347Z,7.80
2023-03-12T06:47:17.768Z,6.32
2023-03-12T06:49:44.678Z,5.18
2023-03-12T06:52:11.609Z,4.35
2023-03-12T06:54:38.512Z,6.63
2023-03-12T06:57:05.120Z,4.57
2023-03-12T06:59:31.778Z,4.50
2023-03-12T07:01:58.742Z,5.13
2023-03-12T07:04:25.570Z,5.18
2023-03-12T07:06:52.545Z,5.80
2023-03-12T07:09:19.813Z,3.80
2023-03-12T07:11:46.637Z,6.57
2023-03-12T07:14:13.957Z,6.22
2023-03-12T07:16:41.080Z,6.20
2023-03-12T07:19:07.757Z,5.97
2023-03-12T07:21:34.592Z,8.52
2023-03-12T07:24:06.753Z,6.07
2023-03-12T07:26:35.318Z,4.80
2023-03-12T07:29:03.965Z,5.43
2023-03-12T07:31:30.793Z,8.73
2023-03-12T07:33:57.620Z,5.53
2023-03-12T07:36:24.886Z,8.02
2023-03-12T07:38:51.753Z,7.40
2023-03-12T07:41:19.844Z,8.77
2023-03-12T07:43:47.315Z,9.25
2023-03-12T07:46:16.344Z,5.22
2023-03-12T07:48:44.404Z,8.27
2023-03-12T07:51:11.448Z,16.00
2023-03-12T07:53:38.942Z,14.20
2023-03-12T07:56:06.356Z,5.93
2023-03-12T07:58:36.658Z,7.32
2023-03-12T08:01:03.532Z,7.55
2023-03-12T08:03:30.956Z,6.72
2023-03-12T08:06:03.394Z,7.72
2023-03-12T08:08:31.583Z,7.90
2023-03-12T08:11:01.162Z,6.90
2023-03-12T08:13:28.150Z,7.50
2023-03-12T08:15:55.591Z,7.95
2023-03-12T08:18:22.904Z,12.23
2023-03-12T08:20:54.254Z,8.43
2023-03-12T08:23:22.061Z,6.53
2023-03-12T08:25:50.315Z,6.55
2023-03-12T08:28:18.122Z,7.03
2023-03-12T08:31:04.814Z,9.77
2023-03-12T08:33:31.581Z,8.35
2023-03-12T08:35:58.478Z,8.32
2023-03-12T08:38:25.641Z,9.35
2023-03-12T08:41:00.154Z,9.52
2023-03-12T08:43:29.459Z,9.73
2023-03-12T08:45:58.699Z,5.88
2023-03-12T08:48:26.293Z,7.57
2023-03-12T08:50:56.471Z,7.32
2023-03-12T08:53:24.310Z,9.77
2023-03-12T08:55:55.710Z,12.68
2023-03-12T08:58:24.994Z,6.72
2023-03-12T09:00:52.677Z,9.20
2023-03-12T09:03:21.539Z,8.80
2023-03-12T09:05:49.715Z,6.22
2023-03-12T09:08:18.537Z,6.00
2023-03-12T09:10:52.221Z,4.88
2023-03-12T09:13:21.141Z,6.20
2023-03-12T09:15:47.924Z,6.30
2023-03-12T09:18:14.634Z,8.05
2023-03-12T09:20:42.888Z,5.13
2023-03-12T09:23:09.678Z,5.68
2023-03-12T09:25:36.416Z,6.55
2023-03-12T09:28:03.055Z,7.50
2023-03-12T09:30:30.664Z,6.80
2023-03-12T09:32:57.511Z,5.10
2023-03-12T09:35:24.360Z,4.00
2023-03-12T09:37:51.502Z,7.07
2023-03-12T09:40:23.131Z,5.00
2023-03-12T09:42:57.694Z,6.63
2023-03-12T09:45:35.097Z,4.57
2023-03-12T09:48:05.346Z,11.00
2023-03-12T09:50:43.761Z,3.90
2023-03-12T09:53:29.152Z,5.57
2023-03-12T09:55:58.452Z,4.20
2023-03-12T09:58:27.335Z,5.78
2023-03-12T10:01:01.202Z,7.40
2023-03-12T10:03:44.317Z,4.85
2023-03-12T10:06:21.447Z,3.83
2023-03-12T10:09:22.308Z,6.15
2023-03-12T10:12:10.528Z,3.88
2023-03-12T10:14:55.823Z,3.90
2023-03-12T10:17:57.942Z,5.50
2023-03-12T10:20:50.863Z,6.68
2023-03-12T10:23:39.119Z,6.38
2023-03-12T10:26:13.657Z,3.63
2023-03-12T10:28:53.590Z,6.80
2023-03-12T10:31:32.506Z,7.10
2023-03-12T10:34:02.244Z,6.60
2023-03-12T10:36:36.760Z,5.28
2023-03-12T10:39:05.557Z,8.05
2023-03-12T10:41:34.870Z,3.95
2023-03-12T10:44:07.047Z,7.03
2023-03-12T10:47:07.007Z,4.15
2023-03-12T10:49:36.723Z,9.38
2023-03-12T10:52:06.338Z,5.63
2023-03-12T10:54:40.788Z,6.03
2023-03-12T10:57:08.656Z,3.90
2023-03-12T10:59:39.307Z,7.85
2023-03-12T11:02:30.071Z,4.07
2023-03-12T11:04:57.997Z,10.80
2023-03-12T11:07:29.096Z,8.10
2023-03-12T11:10:08.127Z,4.47
2023-03-12T11:12:37.884Z,5.65
2023-03-12T11:15:28.137Z,5.45
2023-03-12T11:18:20.553Z,9.90
2023-03-12T11:20:52.474Z,8.43
2023-03-12T11:23:33.275Z,4.68
2023-03-12T11:26:08.512Z,6.05
2023-03-12T11:28:45.306Z,10.48
2023-03-12T11:38:18.999Z,3.47
2023-03-12T11:45:20.827Z,6.38
2023-03-12T11:48:15.801Z,6.10
2023-03-12T11:51:10.030Z,4.82
2023-03-12T11:57:07.835Z,6.32
2023-03-12T12:00:07.991Z,3.25
2023-03-12T12:02:35.151Z,4.22
2023-03-12T12:06:01.027Z,3.97
2023-03-12T12:09:30.304Z,4.20
2023-03-12T12:12:27.000Z,5.15
2023-03-12T12:18:58.143Z,2.92
2023-03-12T12:24:37.361Z,3.25
2023-03-12T12:27:27.330Z,4.18
2023-03-12T12:30:22.946Z,5.90
2023-03-12T12:33:25.143Z,4.25
2023-03-12T12:35:51.872Z,7.78
2023-03-12T12:38:37.569Z,2.90
2023-03-12T12:41:13.896Z,5.00
2023-03-12T12:43:42.492Z,3.08
2023-03-12T12:46:32.508Z,4.90
2023-03-12T12:49:14.134Z,3.85
2023-03-12T12:51:46.092Z,3.05
2023-03-12T12:54:24.265Z,2.45
2023-03-12T12:56:50.830Z,4.72
2023-03-12T12:59:42.251Z,7.03
2023-03-12T13:02:22.242Z,3.28
2023-03-12T13:04:51.621Z,2.45
2023-03-12T13:07:21.483Z,5.22
2023-03-12T13:09:51.105Z,2.65
2023-03-12T13:12:46.587Z,3.15
2023-03-12T13:15:45.000Z,3.28
2023-03-12T13:18:31.283Z,2.67
2023-03-12T13:21:17.298Z,1.67
2023-03-12T13:23:55.340Z,3.17
2023-03-12T13:26:30.951Z,3.42
2023-03-12T13:29:13.065Z,3.05
2023-03-12T13:31:42.100Z,1.73
2023-03-12T13:34:17.992Z,2.78
2023-03-12T13:36:47.150Z,5.45
2023-03-12T13:39:30.567Z,2.33
2023-03-12T13:41:58.697Z,4.95
2023-03-12T13:44:40.168Z,1.85
2023-03-12T13:47:30.890Z,2.65
2023-03-12T13:50:08.311Z,2.92
2023-03-12T13:52:46.993Z,3.13
2023-03-12T13:55:13.613Z,2.65
2023-03-12T13:57:50.177Z,5.53
2023-03-12T14:00:41.729Z,2.72
2023-03-12T14:03:31.399Z,3.90
2023-03-12T14:06:05.648Z,4.25
2023-03-12T14:09:00.432Z,3.60
2023-03-12T14:12:05.853Z,1.75
2023-03-12T14:14:52.391Z,1.77
2023-03-12T14:17:27.277Z,2.83
2023-03-12T14:20:17.565Z,4.05
2023-03-12T14:22:49.917Z,2.08
2023-03-12T14:25:29.682Z,2.35
2023-03-12T14:27:57.151Z,3.40
2023-03-12T14:30:32.358Z,2.67
2023-03-12T14:33:02.957Z,3.60
2023-03-12T14:35:40.533Z,2.38
2023-03-12T14:38:25.464Z,5.15
2023-03-12T14:41:08.077Z,2.45
2023-03-12T14:43:35.675Z,4.15
2023-03-12T14:46:14.864Z,7.03
2023-03-12T14:48:41.477Z,4.80
2023-03-12T14:51:08.343Z,2.50
2023-03-12T14:53:39.514Z,3.75
2023-03-12T14:56:07.344Z,1.80
2023-03-12T14:58:36.846Z,1.88
2023-03-12T15:01:06.993Z,1.55
2023-03-12T15:03:42.444Z,1.52
2023-03-12T15:06:27.835Z,2.30
2023-03-12T15:08:55.141Z,2.25
2023-03-12T15:11:25.690Z,2.35
2023-03-12T15:13:54.863Z,2.30
2023-03-12T15:16:22.936Z,3.75
2023-03-12T15:18:52.911Z,7.97
2023-03-12T15:21:24.665Z,4.13
2023-03-12T15:23:51.682Z,4.93
2023-03-12T15:26:21.499Z,4.95
2023-03-12T15:29:15.113Z,4.75
2023-03-12T15:31:49.369Z,5.53
2023-03-12T15:34:37.797Z,6.13
2023-03-12T15:37:29.740Z,3.42
2023-03-12T15:39:57.740Z,6.97
2023-03-12T15:42:26.858Z,2.83
2023-03-12T15:45:05.376Z,3.95
2023-03-12T15:47:39.436Z,4.38
2023-03-12T15:50:17.425Z,7.68
2023-03-12T15:53:18.007Z,2.67
2023-03-12T15:56:06.439Z,2.92
2023-03-12T15:58:37.214Z,2.33
2023-03-12T16:01:12.548Z,5.25
2023-03-12T16:03:41.486Z,2.63
2023-03-12T16:06:14.060Z,12.88
2023-03-12T16:08:52.489Z,3.55
2023-03-12T16:11:39.241Z,2.83
2023-03-12T16:14:24.389Z,2.85
2023-03-12T16:16:51.488Z,4.13
2023-03-12T16:19:21.001Z,3.17
2023-03-12T16:21:48.251Z,5.03
2023-03-12T16:24:19.997Z,2.50
2023-03-12T16:26:52.824Z,3.17
2023-03-12T16:29:20.477Z,6.22
2023-03-12T16:31:55.611Z,2.97
2023-03-12T16:34:23.368Z,4.75
2023-03-12T16:36:50.461Z,4.53
2023-03-12T16:39:18.830Z,3.10
2023-03-12T16:41:46.130Z,4.57
2023-03-12T16:44:19.870Z,3.42
2023-03-12T16:46:46.813Z,4.85
2023-03-12T16:49:16.381Z,4.82
2023-03-12T16:51:43.260Z,4.85
2023-03-12T16:54:12.225Z,5.40
2023-03-12T16:56:42.521Z,5.10
2023-03-12T16:59:25.688Z,5.18
2023-03-12T17:01:52.833Z,5.55
2023-03-12T17:04:19.777Z,4.90
2023-03-12T17:06:46.570Z,5.15
2023-03-12T17:09:13.253Z,6.95
2023-03-12T17:11:40.690Z,7.30
2023-03-12T17:14:17.230Z,6.10
2023-03-12T17:16:43.859Z,9.38
2023-03-12T17:19:10.562Z,5.70
2023-03-12T17:21:37.490Z,6.57
2023-03-12T17:24:04.662Z,5.82
2023-03-12T17:26:31.316Z,3.67
2023-03-12T17:28:58.316Z,6.65
2023-03-12T17:31:25.052Z,8.40
2023-03-12T17:33:51.781Z,6.55
2023-03-12T17:36:18.790Z,4.97
2023-03-12T17:38:45.431Z,4.82
2023-03-12T17:41:25.519Z,6.82
2023-03-12T17:43:53.994Z,5.35
2023-03-12T17:46:20.736Z,6.40
2023-03-12T17:48:47.539Z,6.88
2023-03-12T17:51:14.379Z,4.40
2023-03-12T17:53:42.175Z,4.97
2023-03-12T17:56:09.210Z,4.97
2023-03-12T17:58:35.882Z,11.38
2023-03-12T18:01:02.551Z,8.10
2023-03-12T18:03:29.259Z,5.60
2023-03-12T18:05:56.123Z,6.43
2023-03-12T18:08:22.980Z,8.25
2023-03-12T18:10:49.815Z,9.82
2023-03-12T18:16:07.633Z,8.45
2023-03-12T18:18:34.683Z,10.60
2023-03-12T18:21:01.353Z,8.25
2023-03-12T18:23:29.015Z,8.95
2023-03-12T18:25:55.814Z,8.07
2023-03-12T18:28:25.226Z,12.02
2023-03-12T18:30:53.943Z,11.00
2023-03-12T18:33:20.945Z,10.60
2023-03-12T18:35:47.778Z,15.98
2023-03-12T18:38:14.612Z,15.20
2023-03-12T18:40:41.358Z,11.38
2023-03-12T18:43:08.536Z,16.15
2023-03-12T18:45:35.228Z,11.10
2023-03-12T18:48:02.705Z,12.27
2023-03-12T18:50:29.692Z,14.98
2023-03-12T18:52:56.279Z,13.02
2023-03-12T18:55:23.227Z,19.27
2023-03-12T18:57:50.905Z,28.63
2023-03-12T19:00:18.815Z,19.27
2023-03-12T19:02:47.987Z,18.38
2023-03-12T19:05:16.507Z,16.73
2023-03-12T19:07:43.834Z,21.35
2023-03-12T19:10:11.908Z,15.80
2023-03-12T19:12:50.934Z,21.58
2023-03-12T19:15:19.677Z,18.67
2023-03-12T19:17:46.294Z,23.25
2023-03-12T19:20:13.288Z,22.58
2023-03-12T19:22:40.089Z,18.85
2023-03-12T19:25:07.250Z,19.08
2023-03-12T19:27:34.118Z,22.60
2023-03-12T19:30:00.921Z,22.98
2023-03-12T19:32:40.557Z,18.95
2023-03-12T19:35:11.052Z,18.65
2023-03-12T19:37:43.191Z,29.08
2023-03-12T19:40:10.946Z,26.92
2023-03-12T19:42:37.918Z,22.17
2023-03-12T19:45:04.962Z,23.17
2023-03-12T19:47:33.333Z,26.33
2023-03-12T19:50:00.925Z,19.65
2023-03-12T19:52:27.757Z,26.88
2023-03-12T19:55:04.329Z,22.95
2023-03-12T19:57:32.011Z,22.50
2023-03-12T19:59:59.181Z,20.00
2023-03-12T20:02:26.732Z,28.98
2023-03-12T20:04:55.156Z,27.83
2023-03-12T20:07:21.785Z,22.63
2023-03-12T20:09:48.559Z,30.77
2023-03-12T20:12:15.365Z,29.08
2023-03-12T20:14:42.980Z,26.83
2023-03-12T20:17:09.844Z,31.73
2023-03-12T20:19:38.642Z,24.52
2023-03-12T20:22:06.236Z,27.02
2023-03-12T20:24:34.899Z,24.20
2023-03-12T20:27:02.419Z,20.05
2023-03-12T20:29:31.298Z,29.08
2023-03-12T20:31:58.143Z,19.30
2023-03-12T20:34:27.680Z,32.20
2023-03-12T20:36:54.493Z,30.15
2023-03-12T20:39:21.310Z,29.67
2023-03-12T20:41:49.826Z,18.25
2023-03-12T20:44:17.074Z,24.23
2023-03-12T20:46:43.909Z,27.13
2023-03-12T20:49:10.676Z,21.67
2023-03-12T20:51:37.310Z,18.92
2023-03-12T20:54:06.859Z,28.17
2023-03-12T20:56:33.462Z,35.53
2023-03-12T20:59:00.061Z,26.58
2023-03-12T21:01:27.280Z,31.02
2023-03-12T21:03:59.605Z,27.92
2023-03-12T21:06:26.563Z,23.67
2023-03-12T21:08:56.116Z,22.95
2023-03-12T21:11:23.039Z,21.60
2023-03-12T21:13:49.750Z,20.02
2023-03-12T21:16:16.648Z,23.15
2023-03-12T21:18:43.347Z,26.23
2023-03-12T21:21:10.091Z,20.08
2023-03-12T21:23:38.780Z,21.50
2023-03-12T21:26:09.192Z,16.15
2023-03-12T21:28:36.440Z,14.50
2023-03-12T21:31:08.631Z,17.73
2023-03-12T21:33:35.386Z,21.85
2023-03-12T21:36:06.755Z,37.78
2023-03-12T21:38:35.633Z,22.05
2023-03-12T21:41:11.245Z,21.40
2023-03-12T21:43:38.506Z,20.92
2023-03-12T21:46:07.366Z,22.95
2023-03-12T21:48:35.125Z,15.43
2023-03-12T21:51:07.862Z,22.58
2023-03-12T21:53:35.735Z,18.17
2023-03-12T21:56:04.208Z,17.15
2023-03-12T21:58:31.888Z,13.02
2023-03-12T22:01:14.688Z,16.30
2023-03-12T22:03:43.084Z,15.73
2023-03-12T22:06:11.039Z,21.35
2023-03-12T22:08:38.687Z,25.85
2023-03-12T22:11:06.359Z,17.02
2023-03-12T22:13:32.997Z,17.88
2023-03-12T22:16:02.794Z,20.85
2023-03-12T22:18:30.373Z,20.05
2023-03-12T22:21:00.882Z,16.77
2023-03-12T22:23:27.972Z,13.32
2023-03-12T22:25:54.896Z,27.70
2023-03-12T22:28:24.622Z,26.27
2023-03-12T22:30:57.620Z,13.05
2023-03-12T22:33:24.525Z,21.42
2023-03-12T22:35:51.420Z,18.45
2023-03-12T22:38:18.162Z,9.88
2023-03-12T22:40:44.996Z,16.13
2023-03-12T22:43:11.781Z,25.02
2023-03-12T22:45:38.319Z,16.23
2023-03-12T22:48:05.238Z,36.35
2023-03-12T22:50:32.374Z,22.80
2023-03-12T22:52:59.570Z,24.35
2023-03-12T22:55:26.443Z,28.10
2023-03-12T22:57:53.109Z,18.90
2023-03-12T23:00:23.919Z,19.65
2023-03-12T23:02:51.168Z,24.15
2023-03-12T23:05:18.058Z,29.20
2023-03-12T23:07:44.972Z,17.05
2023-03-12T23:10:11.858Z,32.03
2023-03-12T23:12:38.395Z,20.88
2023-03-12T23:15:06.172Z,22.90
2023-03-12T23:17:33.007Z,27.73
2023-03-12T23:19:59.638Z,28.98
2023-03-12T23:22:26.265Z,21.63
2023-03-12T23:24:53.240Z,22.67
2023-03-12T23:27:19.842Z,16.25
2023-03-12T23:29:46.587Z,11.77
2023-03-12T23:32:13.992Z,18.33
2023-03-12T23:34:40.575Z,10.98
2023-03-12T23:37:07.300Z,14.43
2023-03-12T23:39:42.213Z,20.13
2023-03-12T23:42:18.533Z,16.15
2023-03-12T23:44:46.303Z,21.63
2023-03-12T23:47:12.937Z,26.25
2023-03-12T23:49:39.693Z,17.38
2023-03-12T23:52:06.718Z,19.52
2023-03-12T23:54:33.427Z,15.05
2023-03-12T23:57:00.178Z,11.55
2023-03-12T23:59:27.236Z,17.73
